createdAt,value
2019-03-15T00:02:20.263Z,2.90
2019-03-15T00:04:48.400Z,2.97
2019-03-15T00:07:16.525Z,3.07
2019-03-15T00:09:44.882Z,3.00
2019-03-15T00:12:13.023Z,2.70
2019-03-15T00:14:41.222Z,2.80
2019-03-15T00:17:09.675Z,2.90
2019-03-15T00:19:37.818Z,2.40
2019-03-15T00:22:05.947Z,3.13
2019-03-15T00:24:34.245Z,2.43
2019-03-15T00:27:02.402Z,2.40
2019-03-15T00:29:30.578Z,2.40
2019-03-15T00:31:58.790Z,2.50
2019-03-15T00:34:26.933Z,2.30
2019-03-15T00:36:55.110Z,2.30
2019-03-15T00:39:23.438Z,2.73
2019-03-15T00:41:51.569Z,2.53
2019-03-15T00:44:19.878Z,2.60
2019-03-15T00:46:48.339Z,2.67
2019-03-15T00:49:16.487Z,2.40
2019-03-15T00:51:44.635Z,2.10
2019-03-15T00:54:13.004Z,2.40
2019-03-15T00:57:00.562Z,2.20
2019-03-15T01:02:27.827Z,2.60
2019-03-15T01:04:55.954Z,2.40
2019-03-15T01:07:24.097Z,2.00
2019-03-15T01:09:52.390Z,1.97
2019-03-15T01:12:20.549Z,2.10
2019-03-15T01:15:08.067Z,2.30
2019-03-15T01:17:55.548Z,2.03
2019-03-15T01:20:23.824Z,1.90
2019-03-15T01:22:51.921Z,1.93
2019-03-15T01:25:20.013Z,2.00
2019-03-15T01:27:48.245Z,1.80
2019-03-15T01:30:35.674Z,1.80
2019-03-15T01:33:04.081Z,1.93
2019-03-15T01:35:33.658Z,1.90
2019-03-15T01:38:01.962Z,1.80
2019-03-15T01:40:49.572Z,1.67
2019-03-15T01:43:17.661Z,2.00
2019-03-15T01:45:45.749Z,1.93
2019-03-15T01:48:33.333Z,2.00
2019-03-15T01:51:01.487Z,2.10
2019-03-15T01:53:29.585Z,1.80
2019-03-15T01:58:31.515Z,1.73
2019-03-15T02:00:59.622Z,1.97
2019-03-15T02:03:27.715Z,1.50
2019-03-15T02:05:55.801Z,2.00
2019-03-15T02:08:23.931Z,1.97
2019-03-15T02:10:52.028Z,1.93
2019-03-15T02:13:20.122Z,1.50
2019-03-15T02:15:48.421Z,1.90
2019-03-15T02:18:16.525Z,1.83
2019-03-15T02:20:44.657Z,1.60
2019-03-15T02:23:32.262Z,1.70
2019-03-15T02:26:00.397Z,1.93
2019-03-15T02:28:28.497Z,1.87
2019-03-15T02:30:56.726Z,1.97
2019-03-15T02:33:24.831Z,2.00
2019-03-15T02:35:52.931Z,1.90
2019-03-15T02:38:21.304Z,2.30
2019-03-15T02:41:08.768Z,2.30
2019-03-15T02:43:37.068Z,2.43
2019-03-15T02:46:05.320Z,2.23
2019-03-15T02:48:52.925Z,2.30
2019-03-15T02:51:21.037Z,2.63
2019-03-15T02:53:49.126Z,2.40
2019-03-15T02:59:11.134Z,2.20
2019-03-15T03:01:39.323Z,2.50
2019-03-15T03:04:07.414Z,2.50
2019-03-15T03:06:35.514Z,2.60
2019-03-15T03:09:05.269Z,2.63
2019-03-15T03:11:33.401Z,2.53
2019-03-15T03:14:01.551Z,2.40
2019-03-15T03:16:49.020Z,2.43
2019-03-15T03:19:17.140Z,2.33
2019-03-15T03:21:45.307Z,2.30
2019-03-15T03:24:13.560Z,2.27
2019-03-15T03:26:41.670Z,2.80
2019-03-15T03:29:09.754Z,2.30
2019-03-15T03:31:57.234Z,2.40
2019-03-15T03:40:12.189Z,2.33
2019-03-15T03:42:40.337Z,2.43
2019-03-15T03:45:09.141Z,2.57
2019-03-15T03:47:37.419Z,2.90
2019-03-15T03:50:06.522Z,2.53
2019-03-15T03:52:34.631Z,2.83
2019-03-15T03:55:03.069Z,2.87
2019-03-15T03:57:31.284Z,2.83
2019-03-15T03:59:59.374Z,3.37
2019-03-15T04:02:27.798Z,2.97
2019-03-15T04:04:55.909Z,2.70
2019-03-15T04:07:24.085Z,2.77
2019-03-15T04:09:52.359Z,3.37
2019-03-15T04:12:20.482Z,3.20
2019-03-15T04:14:48.606Z,2.97
2019-03-15T04:17:16.918Z,3.27
2019-03-15T04:19:45.030Z,2.80
2019-03-15T04:22:13.145Z,3.20
2019-03-15T04:24:41.342Z,3.40
2019-03-15T04:27:09.446Z,3.10
2019-03-15T04:29:37.562Z,3.33
2019-03-15T04:32:05.874Z,3.30
2019-03-15T04:34:34.120Z,3.57
2019-03-15T04:37:02.229Z,3.27
2019-03-15T04:39:30.437Z,2.87
2019-03-15T04:41:58.581Z,3.20
2019-03-15T04:44:26.740Z,3.60
2019-03-15T04:46:55.027Z,2.70
2019-03-15T04:49:23.116Z,3.07
2019-03-15T04:51:51.246Z,3.00
2019-03-15T04:54:19.397Z,3.13
2019-03-15T04:56:47.586Z,3.30
2019-03-15T04:59:15.686Z,2.90
2019-03-15T05:01:43.865Z,2.53
2019-03-15T05:04:11.987Z,3.00
2019-03-15T05:06:40.097Z,3.07
2019-03-15T05:09:08.378Z,3.57
2019-03-15T05:11:36.473Z,3.17
2019-03-15T05:14:04.592Z,3.00
2019-03-15T05:16:33.025Z,3.07
2019-03-15T05:19:01.149Z,3.17
2019-03-15T05:21:29.279Z,3.17
2019-03-15T05:23:57.561Z,3.37
2019-03-15T05:26:25.705Z,3.20
2019-03-15T05:28:53.843Z,3.73
2019-03-15T05:31:22.030Z,3.63
2019-03-15T05:33:50.182Z,3.37
2019-03-15T05:36:18.322Z,4.20
2019-03-15T05:38:46.634Z,3.57
2019-03-15T05:41:16.638Z,4.20
2019-03-15T05:43:44.787Z,4.27
2019-03-15T05:46:12.914Z,4.83
2019-03-15T05:48:41.093Z,5.10
2019-03-15T05:51:09.283Z,5.50
2019-03-15T05:53:37.417Z,5.77
2019-03-15T05:56:05.750Z,6.07
2019-03-15T05:58:33.892Z,5.67
2019-03-15T06:01:02.031Z,5.37
2019-03-15T06:03:30.220Z,5.77
2019-03-15T06:05:58.386Z,5.40
2019-03-15T06:08:27.668Z,5.73
2019-03-15T06:10:56.031Z,5.40
2019-03-15T06:13:24.153Z,5.57
2019-03-15T06:15:52.282Z,4.80
2019-03-15T06:18:20.471Z,5.17
2019-03-15T06:20:48.834Z,5.33
2019-03-15T06:23:17.133Z,5.43
2019-03-15T06:25:45.542Z,5.77
2019-03-15T06:28:13.679Z,5.20
2019-03-15T06:30:41.842Z,5.57
2019-03-15T06:33:10.052Z,4.90
2019-03-15T06:35:38.243Z,4.97
2019-03-15T06:38:06.390Z,4.77
2019-03-15T06:40:34.737Z,4.83
2019-03-15T06:43:02.912Z,4.60
2019-03-15T06:45:31.996Z,4.83
2019-03-15T06:48:00.897Z,4.57
2019-03-15T06:50:29.153Z,4.77
2019-03-15T06:52:57.286Z,5.17
2019-03-15T06:55:25.747Z,4.63
2019-03-15T06:57:53.915Z,4.87
2019-03-15T07:00:22.055Z,4.00
2019-03-15T07:02:50.362Z,4.40
2019-03-15T07:05:18.526Z,4.30
2019-03-15T07:07:46.660Z,4.23
2019-03-15T07:10:15.085Z,3.80
2019-03-15T07:12:43.246Z,3.80
2019-03-15T07:15:12.489Z,4.10
2019-03-15T07:17:41.721Z,4.00
2019-03-15T07:20:13.917Z,3.67
2019-03-15T07:22:42.067Z,3.60
2019-03-15T07:25:10.680Z,3.63
2019-03-15T07:27:42.190Z,3.17
2019-03-15T07:30:12.693Z,3.60
2019-03-15T07:32:40.842Z,3.00
2019-03-15T07:35:09.171Z,2.80
2019-03-15T07:37:37.342Z,3.20
2019-03-15T07:40:09.865Z,3.30
2019-03-15T07:42:38.149Z,3.37
2019-03-15T07:45:08.027Z,3.23
2019-03-15T07:47:36.321Z,3.60
2019-03-15T07:50:06.068Z,3.40
2019-03-15T07:52:36.981Z,3.00
2019-03-15T07:55:06.986Z,2.90
2019-03-15T07:57:42.246Z,3.10
2019-03-15T08:00:12.207Z,3.30
2019-03-15T08:02:40.413Z,3.10
2019-03-15T08:05:08.694Z,3.20
2019-03-15T08:07:44.344Z,3.40
2019-03-15T08:10:08.475Z,3.10
2019-03-15T08:12:38.723Z,2.90
2019-03-15T08:15:07.951Z,3.10
2019-03-15T08:17:36.090Z,2.90
2019-03-15T08:20:11.817Z,2.97
2019-03-15T08:22:40.044Z,3.10
2019-03-15T08:25:09.066Z,2.80
2019-03-15T08:27:37.419Z,2.80
2019-03-15T08:30:07.089Z,2.60
2019-03-15T08:32:35.229Z,3.00
2019-03-15T08:35:04.427Z,2.80
2019-03-15T08:37:32.618Z,2.33
2019-03-15T08:40:00.747Z,2.73
2019-03-15T08:42:29.561Z,2.10
2019-03-15T08:44:57.689Z,2.53
2019-03-15T08:47:26.090Z,1.90
2019-03-15T08:49:54.254Z,1.60
2019-03-15T08:52:22.401Z,1.73
2019-03-15T08:55:04.058Z,1.70
2019-03-15T08:57:20.683Z,1.47
2019-03-15T08:59:56.846Z,1.70
2019-03-15T09:02:18.631Z,1.37
2019-03-15T09:04:50.239Z,1.60
2019-03-15T09:07:16.802Z,1.70
2019-03-15T09:09:44.959Z,1.80
2019-03-15T09:12:13.305Z,1.63
2019-03-15T09:14:41.507Z,1.80
2019-03-15T09:17:09.677Z,1.80
2019-03-15T09:19:37.829Z,1.97
2019-03-15T09:22:05.959Z,2.10
2019-03-15T09:24:34.144Z,1.90
2019-03-15T09:27:02.440Z,2.03
2019-03-15T09:29:30.590Z,1.80
2019-03-15T09:32:06.243Z,2.07
2019-03-15T09:34:28.645Z,2.33
2019-03-15T09:36:56.777Z,2.57
2019-03-15T09:39:24.950Z,2.10
2019-03-15T09:41:53.236Z,2.33
2019-03-15T09:44:21.390Z,2.00
2019-03-15T09:46:49.555Z,2.43
2019-03-15T09:49:18.038Z,2.20
2019-03-15T09:51:46.170Z,2.20
2019-03-15T09:54:14.349Z,2.27
2019-03-15T09:56:42.587Z,2.20
2019-03-15T09:59:10.669Z,2.20
2019-03-15T10:01:38.757Z,2.37
2019-03-15T10:04:07.034Z,2.53
2019-03-15T10:06:35.117Z,2.70
2019-03-15T10:09:04.831Z,2.30
2019-03-15T10:11:33.373Z,2.70
2019-03-15T10:14:02.335Z,2.37
2019-03-15T10:16:30.629Z,2.20
2019-03-15T10:18:58.805Z,2.00
2019-03-15T10:21:26.951Z,2.10
2019-03-15T10:23:55.167Z,2.03
2019-03-15T10:26:24.659Z,2.33
2019-03-15T10:28:52.843Z,2.60
2019-03-15T10:31:20.958Z,2.10
2019-03-15T10:33:50.687Z,2.50
2019-03-15T10:36:19.121Z,2.50
2019-03-15T10:38:47.286Z,2.23
2019-03-15T10:41:15.692Z,2.53
2019-03-15T10:43:43.846Z,2.40
2019-03-15T10:46:11.994Z,2.80
2019-03-15T10:48:40.164Z,1.70
2019-03-15T10:51:08.337Z,1.00
2019-03-15T10:53:36.459Z,1.20
2019-03-15T10:56:04.682Z,0.93
2019-03-15T10:58:32.802Z,0.80
2019-03-15T11:01:00.938Z,0.77
2019-03-15T11:03:29.177Z,1.00
2019-03-15T11:05:57.489Z,0.90
2019-03-15T11:08:25.677Z,0.90
2019-03-15T11:10:54.309Z,0.90
2019-03-15T11:13:22.437Z,0.97
2019-03-15T11:15:50.662Z,0.93
2019-03-15T11:18:18.927Z,0.90
2019-03-15T11:20:47.141Z,0.70
2019-03-15T11:23:15.274Z,0.70
2019-03-15T11:25:43.713Z,0.70
2019-03-15T11:28:11.855Z,0.90
2019-03-15T11:30:39.985Z,0.70
2019-03-15T11:33:08.174Z,0.73
2019-03-15T11:35:36.291Z,0.90
2019-03-15T11:38:04.427Z,0.87
2019-03-15T11:40:32.754Z,0.80
2019-03-15T11:43:00.894Z,0.80
2019-03-15T11:45:29.109Z,0.93
2019-03-15T11:48:04.640Z,0.87
2019-03-15T11:50:27.078Z,1.00
2019-03-15T11:52:55.173Z,1.17
2019-03-15T11:55:23.534Z,1.00
2019-03-15T11:57:51.663Z,1.30
2019-03-15T12:00:19.964Z,1.30
2019-03-15T12:02:48.113Z,1.30
2019-03-15T12:05:16.349Z,1.60
2019-03-15T12:07:44.502Z,1.30
2019-03-15T12:10:14.418Z,1.30
2019-03-15T12:12:42.551Z,1.60
2019-03-15T12:15:11.355Z,1.37
2019-03-15T12:17:39.548Z,1.40
2019-03-15T12:20:11.022Z,1.10
2019-03-15T12:22:39.158Z,1.40
2019-03-15T12:25:08.126Z,1.60
2019-03-15T12:27:36.302Z,1.77
2019-03-15T12:30:05.414Z,1.50
2019-03-15T12:32:33.585Z,1.70
2019-03-15T12:35:01.716Z,1.80
2019-03-15T12:37:29.854Z,1.50
2019-03-15T12:39:58.237Z,1.90
2019-03-15T12:42:26.422Z,2.07
2019-03-15T12:44:54.554Z,1.90
2019-03-15T12:47:22.889Z,1.90
2019-03-15T12:49:51.043Z,1.50
2019-03-15T12:52:20.644Z,2.07
2019-03-15T12:54:49.286Z,1.40
2019-03-15T12:57:17.403Z,1.50
2019-03-15T12:59:45.538Z,1.47
2019-03-15T13:02:13.742Z,1.80
2019-03-15T13:04:41.934Z,1.70
2019-03-15T13:07:10.123Z,2.43
2019-03-15T13:09:38.603Z,1.40
2019-03-15T13:12:06.738Z,1.47
2019-03-15T13:14:34.918Z,1.50
2019-03-15T13:17:03.132Z,1.50
2019-03-15T13:19:31.262Z,1.80
2019-03-15T13:21:59.446Z,1.77
2019-03-15T13:24:27.746Z,1.43
2019-03-15T13:27:06.931Z,1.73
2019-03-15T13:29:25.748Z,2.10
2019-03-15T13:31:53.958Z,1.70
2019-03-15T13:34:22.214Z,1.80
2019-03-15T13:36:50.337Z,2.10
2019-03-15T13:39:18.749Z,1.90
2019-03-15T13:41:46.890Z,2.00
2019-03-15T13:44:15.037Z,1.70
2019-03-15T13:46:43.328Z,1.73
2019-03-15T13:49:11.458Z,1.67
2019-03-15T13:51:39.618Z,1.70
2019-03-15T13:54:08.014Z,1.93
2019-03-15T13:56:36.418Z,1.60
2019-03-15T13:59:04.623Z,1.40
2019-03-15T14:01:32.939Z,1.60
2019-03-15T14:04:01.120Z,1.80
2019-03-15T14:06:29.251Z,1.60
2019-03-15T14:08:57.642Z,1.60
2019-03-15T14:11:25.823Z,1.13
2019-03-15T14:13:53.975Z,1.27
2019-03-15T14:16:22.144Z,1.40
2019-03-15T14:18:50.286Z,1.10
2019-03-15T14:21:18.435Z,1.20
2019-03-15T14:23:46.777Z,1.20
2019-03-15T14:26:14.942Z,1.10
2019-03-15T14:28:43.073Z,1.20
2019-03-15T14:31:11.286Z,1.23
2019-03-15T14:33:39.462Z,0.80
2019-03-15T14:36:07.635Z,1.10
2019-03-15T14:38:36.351Z,0.90
2019-03-15T14:41:07.467Z,0.90
2019-03-15T14:43:35.980Z,0.93
2019-03-15T14:46:04.434Z,0.90
2019-03-15T14:48:32.643Z,0.85
2019-03-15T14:51:01.344Z,0.90
2019-03-15T14:53:29.514Z,1.10
2019-03-15T14:55:57.712Z,0.80
2019-03-15T14:58:25.866Z,0.65
2019-03-15T15:00:54.048Z,0.80
2019-03-15T15:03:22.195Z,0.70
2019-03-15T15:05:50.366Z,0.70
2019-03-15T15:08:18.494Z,0.70
2019-03-15T15:10:46.665Z,0.80
2019-03-15T15:13:14.900Z,0.67
2019-03-15T15:15:43.030Z,0.80
2019-03-15T15:18:11.190Z,0.65
2019-03-15T15:23:02.782Z,1.10
2019-03-15T15:25:30.926Z,0.80
2019-03-15T15:28:04.323Z,0.70
2019-03-15T15:30:28.986Z,0.50
2019-03-15T15:32:57.125Z,0.60
2019-03-15T15:35:25.301Z,0.60
2019-03-15T15:37:53.780Z,0.50
2019-03-15T15:40:21.947Z,0.70
2019-03-15T15:42:50.125Z,0.60
2019-03-15T15:45:18.348Z,0.60
2019-03-15T15:47:46.528Z,0.40
2019-03-15T15:50:18.130Z,0.65
2019-03-15T15:52:46.801Z,0.60
2019-03-15T15:55:15.305Z,0.70
2019-03-15T15:57:43.487Z,0.80
2019-03-15T16:00:18.083Z,0.70
2019-03-15T16:02:46.212Z,0.40
2019-03-15T16:05:14.419Z,0.80
2019-03-15T16:07:42.847Z,0.60
2019-03-15T16:10:12.513Z,0.70
2019-03-15T16:12:40.757Z,0.80
2019-03-15T16:15:10.288Z,0.60
2019-03-15T16:17:38.425Z,0.72
2019-03-15T16:20:07.762Z,0.68
2019-03-15T16:22:36.077Z,0.87
2019-03-15T16:25:05.279Z,0.90
2019-03-15T16:27:33.411Z,0.70
2019-03-15T16:30:01.664Z,0.60
2019-03-15T16:32:29.825Z,0.70
2019-03-15T16:34:57.969Z,0.78
2019-03-15T16:37:26.214Z,0.62
2019-03-15T16:39:56.375Z,0.57
2019-03-15T16:42:24.231Z,0.72
2019-03-15T16:44:52.541Z,0.55
2019-03-15T16:49:45.849Z,0.73
2019-03-15T16:52:14.009Z,0.50
2019-03-15T16:54:42.167Z,0.60
2019-03-15T16:57:10.330Z,1.20
2019-03-15T16:59:38.825Z,1.20
2019-03-15T17:02:06.957Z,1.27
2019-03-15T17:04:35.094Z,1.20
2019-03-15T17:07:03.324Z,0.80
2019-03-15T17:09:31.498Z,0.80
2019-03-15T17:11:59.689Z,0.77
2019-03-15T17:14:27.980Z,0.50
2019-03-15T17:17:15.521Z,1.30
2019-03-15T17:19:44.275Z,0.80
2019-03-15T17:22:12.411Z,0.70
2019-03-15T17:24:40.562Z,0.90
2019-03-15T17:27:28.131Z,0.90
2019-03-15T17:29:56.259Z,1.10
2019-03-15T17:32:24.443Z,0.75
2019-03-15T17:34:52.606Z,0.80
2019-03-15T17:37:20.776Z,0.80
2019-03-15T17:39:49.105Z,1.27
2019-03-15T17:42:17.366Z,1.00
2019-03-15T17:44:59.433Z,1.10
2019-03-15T17:47:15.462Z,0.80
2019-03-15T17:49:43.625Z,1.10
2019-03-15T17:52:11.787Z,1.02
2019-03-15T17:54:40.005Z,0.63
2019-03-15T17:57:08.357Z,1.10
2019-03-15T17:59:36.542Z,1.07
2019-03-15T18:02:04.710Z,0.90
2019-03-15T18:04:52.291Z,0.90
2019-03-15T18:07:20.425Z,0.87
2019-03-15T18:09:48.562Z,0.95
2019-03-15T18:12:36.619Z,1.10
2019-03-15T18:15:05.754Z,1.40
2019-03-15T18:17:33.890Z,0.67
2019-03-15T18:20:02.145Z,1.10
2019-03-15T18:22:30.294Z,1.07
2019-03-15T18:24:58.468Z,1.10
2019-03-15T18:27:26.763Z,0.83
2019-03-15T18:29:54.906Z,0.80
2019-03-15T18:32:23.041Z,1.13
2019-03-15T18:34:51.260Z,0.70
2019-03-15T18:37:19.446Z,0.82
2019-03-15T18:39:47.637Z,1.00
2019-03-15T18:42:16.371Z,1.10
2019-03-15T18:44:44.593Z,1.02
2019-03-15T18:47:12.722Z,1.10
2019-03-15T18:49:40.938Z,0.80
2019-03-15T18:52:09.171Z,1.00
2019-03-15T18:54:38.010Z,2.52
2019-03-15T18:59:42.782Z,1.00
2019-03-15T19:02:10.881Z,0.80
2019-03-15T19:04:39.091Z,0.70
2019-03-15T19:07:07.334Z,0.60
2019-03-15T19:09:35.562Z,0.60
2019-03-15T19:12:03.701Z,0.70
2019-03-15T19:14:31.856Z,0.60
2019-03-15T19:16:59.990Z,0.60
2019-03-15T19:19:28.131Z,0.90
2019-03-15T19:22:15.720Z,0.70
2019-03-15T19:24:44.007Z,0.70
2019-03-15T19:27:12.143Z,0.80
2019-03-15T19:29:52.680Z,0.70
2019-03-15T19:32:10.338Z,1.32
2019-03-15T19:34:38.594Z,0.90
2019-03-15T19:37:06.831Z,1.20
2019-03-15T19:39:34.974Z,1.50
2019-03-15T19:42:03.110Z,1.67
2019-03-15T19:47:05.418Z,0.95
2019-03-15T19:49:33.574Z,1.20
2019-03-15T19:52:01.718Z,0.85
2019-03-15T19:54:31.896Z,1.13
2019-03-15T19:56:59.989Z,1.20
2019-03-15T19:59:28.123Z,0.90
2019-03-15T20:01:56.264Z,0.80
2019-03-15T20:04:24.442Z,0.98
2019-03-15T20:06:52.846Z,1.00
2019-03-15T20:09:20.991Z,1.63
2019-03-15T20:11:49.222Z,1.37
2019-03-15T20:14:17.337Z,0.80
2019-03-15T20:16:45.452Z,0.97
2019-03-15T20:19:13.868Z,0.70
2019-03-15T20:21:42.006Z,0.62
2019-03-15T20:24:10.097Z,0.70
2019-03-15T20:26:38.331Z,0.73
2019-03-15T20:29:25.785Z,0.60
2019-03-15T20:31:54.306Z,0.80
2019-03-15T20:34:41.742Z,0.70
2019-03-15T20:37:10.117Z,0.57
2019-03-15T20:39:38.239Z,1.10
2019-03-15T20:42:06.818Z,0.85
2019-03-15T20:44:35.359Z,0.60
2019-03-15T20:47:03.598Z,0.60
2019-03-15T20:49:31.767Z,0.60
2019-03-15T20:52:00.173Z,0.80
2019-03-15T20:54:28.308Z,0.60
2019-03-15T20:56:56.419Z,0.80
2019-03-15T20:59:24.797Z,0.63
2019-03-15T21:01:52.932Z,0.80
2019-03-15T21:04:21.102Z,0.70
2019-03-15T21:06:49.933Z,0.60
2019-03-15T21:09:18.091Z,0.90
2019-03-15T21:11:46.250Z,0.50
2019-03-15T21:14:14.551Z,0.60
2019-03-15T21:16:42.689Z,0.50
2019-03-15T21:19:10.837Z,0.60
2019-03-15T21:21:39.136Z,0.43
2019-03-15T21:24:26.644Z,0.50
2019-03-15T21:26:54.934Z,0.50
2019-03-15T21:29:23.085Z,0.50
2019-03-15T21:31:51.205Z,0.80
2019-03-15T21:34:19.467Z,0.53
2019-03-15T21:36:47.770Z,0.50
2019-03-15T21:39:15.907Z,0.50
2019-03-15T21:41:44.091Z,0.60
2019-03-15T21:44:12.229Z,0.70
2019-03-15T21:46:40.374Z,0.40
2019-03-15T21:49:08.485Z,0.40
2019-03-15T21:51:36.605Z,0.50
2019-03-15T21:54:04.733Z,0.40
2019-03-15T21:56:33.013Z,0.50
2019-03-15T21:59:01.162Z,0.40
2019-03-15T22:01:29.253Z,0.50
2019-03-15T22:04:16.763Z,0.50
2019-03-15T22:06:44.871Z,0.53
2019-03-15T22:09:13.018Z,0.60
2019-03-15T22:11:41.202Z,0.53
2019-03-15T22:14:09.842Z,0.43
2019-03-15T22:16:38.051Z,0.50
2019-03-15T22:19:06.142Z,0.40
2019-03-15T22:21:53.605Z,0.33
2019-03-15T22:24:21.853Z,0.50
2019-03-15T22:26:49.994Z,0.53
2019-03-15T22:29:18.089Z,0.50
2019-03-15T22:32:05.570Z,0.60
2019-03-15T22:34:33.677Z,0.50
2019-03-15T22:37:01.897Z,0.40
2019-03-15T22:39:30.183Z,0.60
2019-03-15T22:42:17.731Z,0.60
2019-03-15T22:44:46.238Z,0.50
2019-03-15T22:47:14.345Z,0.60
2019-03-15T22:50:01.812Z,0.40
2019-03-15T22:52:29.949Z,0.57
2019-03-15T22:54:58.074Z,0.50
2019-03-15T22:57:26.389Z,0.40
2019-03-15T22:59:54.484Z,0.50
2019-03-15T23:02:22.629Z,0.50
2019-03-15T23:04:50.752Z,0.47
2019-03-15T23:07:38.211Z,0.33
2019-03-15T23:10:07.867Z,0.50
2019-03-15T23:12:35.964Z,0.40
2019-03-15T23:15:05.316Z,0.40
2019-03-15T23:17:52.925Z,0.40
2019-03-15T23:20:21.058Z,0.60
2019-03-15T23:23:08.651Z,0.40
2019-03-15T23:25:36.804Z,0.30
2019-03-15T23:28:05.113Z,0.40
2019-03-15T23:30:33.294Z,0.50
2019-03-15T23:33:01.390Z,0.57
2019-03-15T23:35:29.515Z,0.47
2019-03-15T23:37:57.846Z,0.30
2019-03-15T23:40:25.925Z,0.30
2019-03-15T23:43:13.424Z,0.40
2019-03-15T23:45:41.606Z,0.33
2019-03-15T23:48:29.233Z,0.40
2019-03-15T23:50:57.434Z,0.40
2019-03-15T23:53:25.534Z,0.50
2019-03-15T23:55:54.966Z,0.40
2019-03-15T23:58:23.278Z,0.50
